createdAt,value
2018-04-14T00:01:30.189Z,9.40
2018-04-14T00:03:58.478Z,9.30
2018-04-14T00:06:25.949Z,9.30
2018-04-14T00:08:53.479Z,9.30
2018-04-14T00:11:21.011Z,9.20
2018-04-14T00:13:48.462Z,9.20
2018-04-14T00:16:16.068Z,9.20
2018-04-14T00:18:43.553Z,9.10
2018-04-14T00:21:11.068Z,9.10
2018-04-14T00:23:38.558Z,9.00
2018-04-14T00:26:06.843Z,8.90
2018-04-14T00:28:35.105Z,8.90
2018-04-14T00:31:02.651Z,8.90
2018-04-14T00:33:30.138Z,8.80
2018-04-14T00:35:57.664Z,8.80
2018-04-14T00:38:25.168Z,8.70
2018-04-14T00:40:52.673Z,8.80
2018-04-14T00:43:20.154Z,8.80
2018-04-14T00:45:47.662Z,8.80
2018-04-14T00:48:15.174Z,8.70
2018-04-14T00:50:42.702Z,8.80
2018-04-14T00:53:21.987Z,8.80
2018-04-14T00:55:49.557Z,8.80
2018-04-14T00:58:17.067Z,8.80
2018-04-14T01:00:45.314Z,8.80
2018-04-14T01:03:12.845Z,8.80
2018-04-14T01:05:40.318Z,8.80
2018-04-14T01:08:07.831Z,8.80
2018-04-14T01:10:35.321Z,8.80
2018-04-14T01:13:02.850Z,8.80
2018-04-14T01:15:31.105Z,8.80
2018-04-14T01:17:58.625Z,8.70
2018-04-14T01:20:26.106Z,8.80
2018-04-14T01:22:53.621Z,8.70
2018-04-14T01:25:21.885Z,8.70
2018-04-14T01:27:49.408Z,8.70
2018-04-14T01:30:16.893Z,8.70
2018-04-14T01:32:44.404Z,8.70
2018-04-14T01:35:11.893Z,8.60
2018-04-14T01:37:40.285Z,8.40
2018-04-14T01:40:08.552Z,8.40
2018-04-14T01:42:36.037Z,8.30
2018-04-14T01:45:04.318Z,8.30
2018-04-14T01:47:31.825Z,8.30
2018-04-14T01:49:59.338Z,8.30
2018-04-14T01:52:26.833Z,8.20
2018-04-14T01:54:54.389Z,8.20
2018-04-14T01:57:21.881Z,8.30
2018-04-14T01:59:50.198Z,8.20
2018-04-14T02:02:17.725Z,8.20
2018-04-14T02:04:45.250Z,8.20
2018-04-14T02:07:12.738Z,8.20
2018-04-14T02:09:40.259Z,8.20
2018-04-14T02:12:08.513Z,8.20
2018-04-14T02:14:36.030Z,8.20
2018-04-14T02:17:04.282Z,8.20
2018-04-14T02:19:31.840Z,8.20
2018-04-14T02:21:59.339Z,8.20
2018-04-14T02:24:26.989Z,8.10
2018-04-14T02:26:54.473Z,8.10
2018-04-14T02:29:22.006Z,8.00
2018-04-14T02:31:49.537Z,8.00
2018-04-14T02:34:17.787Z,8.10
2018-04-14T02:36:45.353Z,8.00
2018-04-14T02:39:12.841Z,8.10
2018-04-14T02:41:40.370Z,8.10
2018-04-14T02:44:07.873Z,8.10
2018-04-14T02:46:35.551Z,8.10
2018-04-14T02:49:03.038Z,8.10
2018-04-14T02:51:30.605Z,8.00
2018-04-14T02:53:58.097Z,8.00
2018-04-14T02:56:26.543Z,8.00
2018-04-14T02:58:54.046Z,8.00
2018-04-14T03:01:21.586Z,8.00
2018-04-14T03:03:49.235Z,7.90
2018-04-14T03:06:16.767Z,7.90
2018-04-14T03:08:44.261Z,8.00
2018-04-14T03:11:11.774Z,8.00
2018-04-14T03:13:39.319Z,8.00
2018-04-14T03:16:06.793Z,8.00
2018-04-14T03:18:34.446Z,8.00
2018-04-14T03:21:01.923Z,7.90
2018-04-14T03:23:30.199Z,7.90
2018-04-14T03:25:57.721Z,7.90
2018-04-14T03:28:25.244Z,7.90
2018-04-14T03:30:53.490Z,7.80
2018-04-14T03:33:21.005Z,7.70
2018-04-14T03:35:49.251Z,7.70
2018-04-14T03:38:16.780Z,7.70
2018-04-14T03:40:45.132Z,7.70
2018-04-14T03:43:12.650Z,7.70
2018-04-14T03:45:40.125Z,7.70
2018-04-14T03:48:07.641Z,7.60
2018-04-14T03:50:35.125Z,7.60
2018-04-14T03:53:02.642Z,7.50
2018-04-14T03:55:30.118Z,7.40
2018-04-14T03:57:57.638Z,7.30
2018-04-14T04:00:25.126Z,7.20
2018-04-14T04:02:53.422Z,7.20
2018-04-14T04:05:21.681Z,7.20
2018-04-14T04:07:49.161Z,7.20
2018-04-14T04:10:16.670Z,7.30
2018-04-14T04:12:44.149Z,7.30
2018-04-14T04:15:11.666Z,7.30
2018-04-14T04:17:39.158Z,7.30
2018-04-14T04:20:18.686Z,7.30
2018-04-14T04:22:58.030Z,7.20
2018-04-14T04:25:37.413Z,7.20
2018-04-14T04:28:05.788Z,7.20
2018-04-14T04:30:33.284Z,7.20
2018-04-14T04:33:01.534Z,7.10
2018-04-14T04:35:29.046Z,7.10
2018-04-14T04:37:57.298Z,7.00
2018-04-14T04:40:24.825Z,7.00
2018-04-14T04:42:52.321Z,7.00
2018-04-14T04:45:19.840Z,7.00
2018-04-14T04:47:48.858Z,7.00
2018-04-14T04:50:17.145Z,7.00
2018-04-14T04:52:44.648Z,7.00
2018-04-14T04:55:12.163Z,7.00
2018-04-14T04:57:39.657Z,7.10
2018-04-14T05:00:07.333Z,7.10
2018-04-14T05:02:34.865Z,7.20
2018-04-14T05:05:03.094Z,7.20
2018-04-14T05:07:31.409Z,7.30
2018-04-14T05:09:58.902Z,7.30
2018-04-14T05:12:26.473Z,7.40
2018-04-14T05:14:54.007Z,7.50
2018-04-14T05:17:21.565Z,7.60
2018-04-14T05:19:49.874Z,7.80
2018-04-14T05:22:17.405Z,7.80
2018-04-14T05:24:44.905Z,7.80
2018-04-14T05:27:13.234Z,8.10
2018-04-14T05:29:40.734Z,8.10
2018-04-14T05:32:08.263Z,8.20
2018-04-14T05:34:35.766Z,8.30
2018-04-14T05:37:03.290Z,8.50
2018-04-14T05:39:30.793Z,8.60
2018-04-14T05:41:58.294Z,8.80
2018-04-14T05:44:25.814Z,9.20
2018-04-14T05:46:53.356Z,9.50
2018-04-14T05:49:20.914Z,9.80
2018-04-14T05:51:48.509Z,10.00
2018-04-14T05:54:16.045Z,10.20
2018-04-14T05:56:43.560Z,10.40
2018-04-14T05:59:11.115Z,10.60
2018-04-14T06:01:38.688Z,10.80
2018-04-14T06:04:06.805Z,11.10
2018-04-14T06:06:34.303Z,11.40
2018-04-14T06:09:01.866Z,11.60
2018-04-14T06:11:29.390Z,11.80
2018-04-14T06:14:00.803Z,12.00
2018-04-14T06:16:28.296Z,12.10
2018-04-14T06:18:55.875Z,12.30
2018-04-14T06:21:23.369Z,12.40
2018-04-14T06:23:50.917Z,12.50
2018-04-14T06:26:18.431Z,12.50
2018-04-14T06:28:45.938Z,12.50
2018-04-14T06:31:13.456Z,12.50
2018-04-14T06:33:42.514Z,12.80
2018-04-14T06:36:10.070Z,12.70
2018-04-14T06:38:38.950Z,13.40
2018-04-14T06:41:07.241Z,18.40
2018-04-14T06:43:35.575Z,18.40
2018-04-14T06:46:03.109Z,20.70
2018-04-14T06:48:30.590Z,22.10
2018-04-14T06:50:58.143Z,23.50
2018-04-14T06:53:25.672Z,24.10
2018-04-14T06:55:53.259Z,24.90
2018-04-14T06:58:20.768Z,25.90
2018-04-14T07:00:48.317Z,26.90
2018-04-14T07:03:15.801Z,27.30
2018-04-14T07:05:54.941Z,27.50
2018-04-14T07:08:22.468Z,27.40
2018-04-14T07:10:50.002Z,27.70
2018-04-14T07:13:17.485Z,28.30
2018-04-14T07:15:45.019Z,28.70
2018-04-14T07:18:12.515Z,29.20
2018-04-14T07:20:40.053Z,30.10
2018-04-14T07:23:07.549Z,30.40
2018-04-14T07:25:35.057Z,30.60
2018-04-14T07:28:02.574Z,30.90
2018-04-14T07:30:30.074Z,31.20
2018-04-14T07:32:57.618Z,30.90
2018-04-14T07:35:25.881Z,30.60
2018-04-14T07:37:53.434Z,30.50
2018-04-14T07:40:20.933Z,31.30
2018-04-14T07:42:48.458Z,32.00
2018-04-14T07:45:15.953Z,31.50
2018-04-14T07:47:43.477Z,31.70
2018-04-14T07:50:11.850Z,32.60
2018-04-14T07:52:39.374Z,32.60
2018-04-14T07:55:06.878Z,32.50
2018-04-14T07:57:34.395Z,32.60
2018-04-14T08:00:01.887Z,33.30
2018-04-14T08:02:30.929Z,33.50
2018-04-14T08:04:58.433Z,33.00
2018-04-14T08:07:26.755Z,33.30
2018-04-14T08:09:54.235Z,33.20
2018-04-14T08:12:21.740Z,33.10
2018-04-14T08:14:49.273Z,33.00
2018-04-14T08:17:16.767Z,33.10
2018-04-14T08:19:44.286Z,32.40
2018-04-14T08:22:12.543Z,31.70
2018-04-14T08:24:40.150Z,31.70
2018-04-14T08:27:07.581Z,31.80
2018-04-14T08:29:35.086Z,31.00
2018-04-14T08:32:02.637Z,31.90
2018-04-14T08:34:30.167Z,32.10
2018-04-14T08:36:57.651Z,31.70
2018-04-14T08:39:25.182Z,30.80
2018-04-14T08:41:52.675Z,29.10
2018-04-14T08:44:20.202Z,26.90
2018-04-14T08:46:48.450Z,24.20
2018-04-14T08:49:15.979Z,24.10
2018-04-14T08:51:43.483Z,24.80
2018-04-14T08:54:11.154Z,26.00
2018-04-14T08:56:38.653Z,26.80
2018-04-14T08:59:06.137Z,28.80
2018-04-14T09:01:33.655Z,30.20
2018-04-14T09:04:01.142Z,30.90
2018-04-14T09:06:28.668Z,31.50
2018-04-14T09:08:56.149Z,30.90
2018-04-14T09:11:24.426Z,27.80
2018-04-14T09:13:52.681Z,26.10
2018-04-14T09:16:20.207Z,26.10
2018-04-14T09:18:47.702Z,24.60
2018-04-14T09:21:15.225Z,23.60
2018-04-14T09:23:43.005Z,23.40
2018-04-14T09:26:10.517Z,23.60
2018-04-14T09:28:38.011Z,23.40
2018-04-14T09:31:05.533Z,24.80
2018-04-14T09:33:33.799Z,27.50
2018-04-14T09:36:01.290Z,27.50
2018-04-14T09:38:29.582Z,28.20
2018-04-14T09:40:57.092Z,28.20
2018-04-14T09:43:24.615Z,28.10
2018-04-14T09:45:53.025Z,30.70
2018-04-14T09:48:20.559Z,30.60
2018-04-14T09:50:48.053Z,31.20
2018-04-14T09:53:16.333Z,30.70
2018-04-14T09:55:43.831Z,30.70
2018-04-14T09:58:11.347Z,31.10
2018-04-14T10:03:47.201Z,31.40
2018-04-14T10:06:17.363Z,30.40
2018-04-14T10:08:44.887Z,30.40
2018-04-14T10:11:13.142Z,29.30
2018-04-14T10:13:40.658Z,29.20
2018-04-14T10:16:08.906Z,28.40
2018-04-14T10:18:36.430Z,28.40
2018-04-14T10:21:03.914Z,28.90
2018-04-14T10:23:31.429Z,29.20
2018-04-14T10:25:58.907Z,29.10
2018-04-14T10:28:26.398Z,28.70
2018-04-14T10:30:54.658Z,27.90
2018-04-14T10:33:22.174Z,27.90
2018-04-14T10:35:49.689Z,28.20
2018-04-14T10:38:17.175Z,27.90
2018-04-14T10:40:44.788Z,27.40
2018-04-14T10:43:12.274Z,28.20
2018-04-14T10:45:40.403Z,28.80
2018-04-14T10:48:08.508Z,29.10
2018-04-14T10:50:36.798Z,28.40
2018-04-14T10:53:04.281Z,28.30
2018-04-14T10:55:32.575Z,27.60
2018-04-14T10:58:00.874Z,26.60
2018-04-14T11:00:28.397Z,26.50
2018-04-14T11:02:55.893Z,25.60
2018-04-14T11:05:24.185Z,23.30
2018-04-14T11:07:52.434Z,22.80
2018-04-14T11:10:20.036Z,22.80
2018-04-14T11:12:47.576Z,22.20
2018-04-14T11:15:15.177Z,22.10
2018-04-14T11:17:42.635Z,21.80
2018-04-14T11:20:10.127Z,21.70
2018-04-14T11:22:37.653Z,21.70
2018-04-14T11:25:05.198Z,21.60
2018-04-14T11:27:32.834Z,21.60
2018-04-14T11:30:00.326Z,21.60
2018-04-14T11:32:28.608Z,21.60
2018-04-14T11:34:56.877Z,21.80
2018-04-14T11:37:24.414Z,21.80
2018-04-14T11:39:51.910Z,21.90
2018-04-14T11:42:19.437Z,22.30
2018-04-14T11:44:46.930Z,22.40
2018-04-14T11:47:14.458Z,22.60
2018-04-14T11:49:41.945Z,22.50
2018-04-14T11:52:09.473Z,22.70
2018-04-14T11:54:36.964Z,22.90
2018-04-14T11:57:05.267Z,22.60
2018-04-14T11:59:33.517Z,22.40
2018-04-14T12:02:12.141Z,22.40
2018-04-14T12:04:39.633Z,22.40
2018-04-14T12:07:07.141Z,22.50
2018-04-14T12:09:34.998Z,22.70
2018-04-14T12:12:03.290Z,22.80
2018-04-14T12:14:31.547Z,22.90
2018-04-14T12:16:59.134Z,22.90
2018-04-14T12:19:26.619Z,23.20
2018-04-14T12:21:54.870Z,22.70
2018-04-14T12:24:22.394Z,22.70
2018-04-14T12:26:50.645Z,23.10
2018-04-14T12:29:18.913Z,23.30
2018-04-14T12:31:46.407Z,23.30
2018-04-14T12:34:13.946Z,23.30
2018-04-14T12:36:41.434Z,23.10
2018-04-14T12:39:08.957Z,22.80
2018-04-14T12:41:36.454Z,22.60
2018-04-14T12:44:03.994Z,22.60
2018-04-14T12:46:31.550Z,22.30
2018-04-14T12:48:59.634Z,22.00
2018-04-14T12:51:27.919Z,21.40
2018-04-14T12:53:55.442Z,21.40
2018-04-14T12:56:22.949Z,21.30
2018-04-14T12:58:50.516Z,21.50
2018-04-14T13:01:17.994Z,22.00
2018-04-14T13:03:45.498Z,22.60
2018-04-14T13:06:13.816Z,23.10
2018-04-14T13:08:41.310Z,23.00
2018-04-14T13:13:48.792Z,22.70
2018-04-14T13:16:16.311Z,22.50
2018-04-14T13:18:43.790Z,22.60
2018-04-14T13:21:11.368Z,22.70
2018-04-14T13:23:38.857Z,22.90
2018-04-14T13:26:06.381Z,23.00
2018-04-14T13:28:33.882Z,23.00
2018-04-14T13:31:01.411Z,23.00
2018-04-14T13:33:29.679Z,22.40
2018-04-14T13:35:57.974Z,22.30
2018-04-14T13:38:26.226Z,22.40
2018-04-14T13:40:54.593Z,22.50
2018-04-14T13:43:22.086Z,22.40
2018-04-14T13:45:49.602Z,22.70
2018-04-14T13:48:17.705Z,22.80
2018-04-14T13:50:46.191Z,22.60
2018-04-14T13:53:14.489Z,22.10
2018-04-14T13:55:41.980Z,22.00
2018-04-14T13:58:09.510Z,22.00
2018-04-14T14:00:37.001Z,21.90
2018-04-14T14:03:04.534Z,21.80
2018-04-14T14:05:32.020Z,21.60
2018-04-14T14:07:59.621Z,21.00
2018-04-14T14:10:27.103Z,20.60
2018-04-14T14:12:55.184Z,20.60
2018-04-14T14:15:22.698Z,20.70
2018-04-14T14:17:50.215Z,21.10
2018-04-14T14:20:17.715Z,21.50
2018-04-14T14:22:45.233Z,21.40
2018-04-14T14:25:13.503Z,21.80
2018-04-14T14:27:41.785Z,21.90
2018-04-14T14:30:09.283Z,21.90
2018-04-14T14:32:36.989Z,22.10
2018-04-14T14:35:05.881Z,22.20
2018-04-14T14:37:33.466Z,22.40
2018-04-14T14:40:01.030Z,22.40
2018-04-14T14:42:28.598Z,22.40
2018-04-14T14:44:56.906Z,22.30
2018-04-14T14:47:24.390Z,22.30
2018-04-14T14:49:57.643Z,22.30
2018-04-14T14:52:25.164Z,22.20
2018-04-14T14:54:52.682Z,22.10
2018-04-14T14:57:21.094Z,22.00
2018-04-14T14:59:49.966Z,21.90
2018-04-14T15:02:17.465Z,21.90
2018-04-14T15:04:45.759Z,22.30
2018-04-14T15:07:14.861Z,22.70
2018-04-14T15:09:43.174Z,23.10
2018-04-14T15:12:10.671Z,23.10
2018-04-14T15:14:38.183Z,23.30
2018-04-14T15:17:06.439Z,23.10
2018-04-14T15:19:33.978Z,23.10
2018-04-14T15:22:01.465Z,22.70
2018-04-14T15:24:29.054Z,22.60
2018-04-14T15:26:56.573Z,22.30
2018-04-14T15:29:24.823Z,21.90
2018-04-14T15:31:52.342Z,21.90
2018-04-14T15:34:20.591Z,21.50
2018-04-14T15:36:48.213Z,21.50
2018-04-14T15:39:15.788Z,21.30
2018-04-14T15:41:43.309Z,21.10
2018-04-14T15:44:10.801Z,20.90
2018-04-14T15:46:38.438Z,20.70
2018-04-14T15:49:05.927Z,20.70
2018-04-14T15:51:33.455Z,20.60
2018-04-14T15:54:01.095Z,20.50
2018-04-14T15:56:29.426Z,20.20
2018-04-14T15:58:56.945Z,20.20
2018-04-14T16:01:24.450Z,20.20
2018-04-14T16:03:51.984Z,20.10
2018-04-14T16:06:19.477Z,20.10
2018-04-14T16:08:47.811Z,19.90
2018-04-14T16:11:15.311Z,19.90
2018-04-14T16:13:43.599Z,19.70
2018-04-14T16:16:11.086Z,19.70
2018-04-14T16:18:38.623Z,19.60
2018-04-14T16:21:06.124Z,19.50
2018-04-14T16:23:33.707Z,19.40
2018-04-14T16:26:01.173Z,19.30
2018-04-14T16:28:28.706Z,19.20
2018-04-14T16:30:56.225Z,19.00
2018-04-14T16:33:23.745Z,19.00
2018-04-14T16:35:51.234Z,18.90
2018-04-14T16:38:19.518Z,18.80
2018-04-14T16:40:47.048Z,18.70
2018-04-14T16:43:14.590Z,18.70
2018-04-14T16:45:42.081Z,18.60
2018-04-14T16:48:10.334Z,18.40
2018-04-14T16:50:37.854Z,18.30
2018-04-14T16:53:05.349Z,18.30
2018-04-14T16:55:32.890Z,18.20
2018-04-14T16:58:01.148Z,18.00
2018-04-14T17:00:28.669Z,18.00
2018-04-14T17:02:56.158Z,18.00
2018-04-14T17:05:23.699Z,17.90
2018-04-14T17:07:51.193Z,17.80
2018-04-14T17:12:53.364Z,17.60
2018-04-14T17:15:43.138Z,17.50
2018-04-14T17:18:10.959Z,17.40
2018-04-14T17:20:38.474Z,17.30
2018-04-14T17:23:05.954Z,17.20
2018-04-14T17:25:33.474Z,17.10
2018-04-14T17:28:00.953Z,17.10
2018-04-14T17:30:28.466Z,17.00
2018-04-14T17:32:55.987Z,16.90
2018-04-14T17:35:23.511Z,16.90
2018-04-14T17:37:51.005Z,16.80
2018-04-14T17:40:18.521Z,16.80
2018-04-14T17:42:46.292Z,16.70
2018-04-14T17:45:14.225Z,16.70
2018-04-14T17:47:41.718Z,16.60
2018-04-14T17:50:09.965Z,16.60
2018-04-14T17:52:37.492Z,16.50
2018-04-14T17:55:04.993Z,16.50
2018-04-14T17:57:32.513Z,16.40
2018-04-14T18:00:00.766Z,16.40
2018-04-14T18:02:28.283Z,16.30
2018-04-14T18:04:55.773Z,16.30
2018-04-14T18:07:23.294Z,16.20
2018-04-14T18:09:50.774Z,16.10
2018-04-14T18:12:18.303Z,15.90
2018-04-14T18:14:45.793Z,15.80
2018-04-14T18:17:13.313Z,15.70
2018-04-14T18:19:41.612Z,15.60
2018-04-14T18:22:09.155Z,15.60
2018-04-14T18:24:36.642Z,15.60
2018-04-14T18:27:04.174Z,15.50
2018-04-14T18:29:31.661Z,15.40
2018-04-14T18:31:59.175Z,15.30
2018-04-14T18:34:26.689Z,15.30
2018-04-14T18:36:54.175Z,15.20
2018-04-14T18:39:21.762Z,15.20
2018-04-14T18:41:49.280Z,15.20
2018-04-14T18:44:16.801Z,15.20
2018-04-14T18:46:45.049Z,15.20
2018-04-14T18:49:12.573Z,15.10
2018-04-14T18:51:40.830Z,15.10
2018-04-14T18:54:08.359Z,15.10
2018-04-14T18:56:35.842Z,15.00
2018-04-14T18:59:03.325Z,15.00
2018-04-14T19:01:30.854Z,14.90
2018-04-14T19:03:58.337Z,14.80
2018-04-14T19:06:25.885Z,14.80
2018-04-14T19:08:54.130Z,14.70
2018-04-14T19:11:22.419Z,14.60
2018-04-14T19:13:49.923Z,14.60
2018-04-14T19:16:18.223Z,14.50
2018-04-14T19:18:46.485Z,14.40
2018-04-14T19:21:14.021Z,14.40
2018-04-14T19:23:41.905Z,14.30
2018-04-14T19:26:09.421Z,14.20
2018-04-14T19:28:36.910Z,14.10
2018-04-14T19:31:05.761Z,14.00
2018-04-14T19:33:33.254Z,13.90
2018-04-14T19:36:00.779Z,13.70
2018-04-14T19:38:28.269Z,13.70
2018-04-14T19:40:55.788Z,13.70
2018-04-14T19:43:23.903Z,13.70
2018-04-14T19:45:55.171Z,13.40
2018-04-14T19:48:22.735Z,13.40
2018-04-14T19:50:50.225Z,13.40
2018-04-14T19:53:17.750Z,13.30
2018-04-14T19:55:45.246Z,13.30
2018-04-14T19:58:12.774Z,13.30
2018-04-14T20:00:40.254Z,13.30
2018-04-14T20:03:07.808Z,13.30
2018-04-14T20:05:39.147Z,13.40
2018-04-14T20:08:15.679Z,13.40
2018-04-14T20:10:51.683Z,13.30
2018-04-14T20:13:20.103Z,13.30
2018-04-14T20:15:47.563Z,13.30
2018-04-14T20:18:15.088Z,13.30
2018-04-14T20:20:42.586Z,13.40
2018-04-14T20:23:10.121Z,13.40
2018-04-14T20:25:37.632Z,13.40
2018-04-14T20:28:05.157Z,13.40
2018-04-14T20:30:32.650Z,13.40
2018-04-14T20:33:00.977Z,13.50
2018-04-14T20:35:28.457Z,13.50
2018-04-14T20:37:55.990Z,13.50
2018-04-14T20:40:24.265Z,13.70
2018-04-14T20:42:51.896Z,13.60
2018-04-14T20:45:19.397Z,13.70
2018-04-14T20:47:46.885Z,13.70
2018-04-14T20:50:14.402Z,13.70
2018-04-14T20:52:41.883Z,13.70
2018-04-14T20:55:09.406Z,13.80
2018-04-14T20:57:37.652Z,13.80
2018-04-14T21:00:05.215Z,13.80
2018-04-14T21:02:32.731Z,13.80
2018-04-14T21:05:01.018Z,13.80
2018-04-14T21:07:28.506Z,13.80
2018-04-14T21:09:56.046Z,13.80
2018-04-14T21:12:23.535Z,13.80
2018-04-14T21:14:51.846Z,13.80
2018-04-14T21:17:19.338Z,13.80
2018-04-14T21:19:46.856Z,13.80
2018-04-14T21:22:14.345Z,13.80
2018-04-14T21:24:42.630Z,13.90
2018-04-14T21:27:10.925Z,13.90
2018-04-14T21:29:39.222Z,13.90
2018-04-14T21:32:07.506Z,13.90
2018-04-14T21:34:35.798Z,13.90
2018-04-14T21:37:04.089Z,13.90
2018-04-14T21:39:32.340Z,14.00
2018-04-14T21:41:59.858Z,14.00
2018-04-14T21:44:27.355Z,14.00
2018-04-14T21:46:54.887Z,14.00
2018-04-14T21:49:23.137Z,14.00
2018-04-14T21:51:50.698Z,13.90
2018-04-14T21:54:18.187Z,13.90
2018-04-14T21:56:45.707Z,13.90
2018-04-14T21:59:13.190Z,13.80
2018-04-14T22:01:40.733Z,13.80
2018-04-14T22:04:08.990Z,13.70
2018-04-14T22:06:36.517Z,13.70
2018-04-14T22:09:04.014Z,13.70
2018-04-14T22:11:31.556Z,13.70
2018-04-14T22:13:59.045Z,13.80
2018-04-14T22:16:26.530Z,13.80
2018-04-14T22:18:54.054Z,13.70
2018-04-14T22:21:22.308Z,13.70
2018-04-14T22:23:49.841Z,13.70
2018-04-14T22:26:17.322Z,13.70
2018-04-14T22:28:44.874Z,13.80
2018-04-14T22:31:12.362Z,13.70
2018-04-14T22:33:39.879Z,13.70
2018-04-14T22:36:07.361Z,13.70
2018-04-14T22:38:35.651Z,13.70
2018-04-14T22:41:03.898Z,13.70
2018-04-14T22:43:31.415Z,13.70
2018-04-14T22:45:58.902Z,13.70
2018-04-14T22:48:26.456Z,13.70
2018-04-14T22:50:54.706Z,13.70
2018-04-14T22:53:22.192Z,13.70
2018-04-14T22:55:49.721Z,13.70
2018-04-14T22:58:17.211Z,13.70
2018-04-14T23:00:44.740Z,13.80
2018-04-14T23:03:13.062Z,13.90
2018-04-14T23:05:40.590Z,13.90
2018-04-14T23:08:08.086Z,13.90
2018-04-14T23:10:35.613Z,13.80
2018-04-14T23:13:03.095Z,13.70
2018-04-14T23:21:11.674Z,13.60
2018-04-14T23:23:39.195Z,13.50
2018-04-14T23:26:06.715Z,13.50
2018-04-14T23:28:34.198Z,13.50
2018-04-14T23:31:01.737Z,13.50
2018-04-14T23:33:29.230Z,13.50
2018-04-14T23:35:56.718Z,13.50
2018-04-14T23:38:25.026Z,13.40
2018-04-14T23:40:53.278Z,13.40
2018-04-14T23:43:20.794Z,13.30
2018-04-14T23:45:48.286Z,13.30
2018-04-14T23:48:15.805Z,13.30
2018-04-14T23:50:44.054Z,13.20
2018-04-14T23:53:11.615Z,13.20
2018-04-14T23:55:39.106Z,13.20
2018-04-14T23:58:06.630Z,13.20
